Kendall, WI (54638)

3:41 AM CST on February 11, 2016 (GMT -0600)
Kendall, Wi. | | Change Station
CLOSE
Current Station
Personal Weather Station
Location: Kendall, WI
Elevation: 1021 ft
Nearby Weather Stations

Elev 1021 ft 43.79 °N, 90.37 °W | Updated 4 seconds ago

Clear
Clear
-8.1 °F
Feels Like -23 °F
N
6.9
Wind Variable Wind from WNW
Gusts 8.1 mph

Today
High -- | Low -- °F
--% Chance of Precip.
Yesterday
High -- | Low -- °F
Precip. -- in
Pressure 30.32 in
Visibility 10.0 miles
Clouds Clear
Windchill -23 °F
Dew Point -40 °F
Humidity 19%
Rainfall 0.00 in
Snow Depth Not available.
7:06 AM 5:25 PM
Waxing Crescent, 10% visible
METAR KVOK 110858Z AUTO 31003KT 10SM CLR M20/M20 A3024 RMK AO2 SLP267 T12001205 52011
Pressure 30.32 in
Visibility 10.0 miles
Clouds Clear
Windchill -23 °F
Dew Point -40 °F
Humidity 19%
Rainfall 0.00 in
Snow Depth Not available.
7:06 AM 5:25 PM
Waxing Crescent, 10% visible
METAR KVOK 110858Z AUTO 31003KT 10SM CLR M20/M20 A3024 RMK AO2 SLP267 T12001205 52011

10-Day Weather Forecast

Almanac

Astronomy

Feb. 11, 2016 Rise Set
Actual Time
Civil Twilight
Nautical Twilight
Astronomical Twilight
Moon
Length of Visible Light
Length of Day
Tomorrow will be .
, % of the Moon is Illuminated

Today's Extremes

State Highs State Lows

Community

WunderPhotos

Upload Photos

1,892,030 photos uploaded!

WunderBlog® & News

Nearby

Air Quality

  Air Quality AQ Index Pollutant
Not available.

Snow Depth

Station Depth Elevation

Earthquake Activity

City Distance Mag. Time & Date
Minimum magnitude displayed is 2.5.

Coastal Water Temperatures

Place Temperature

Stations

Nearby Weather Stations

Station Location Temp. Windchill Dew Point Humidity Wind Precip. Elev Updated Type
                   

Watches & Warnings

There are currently no watches in effect.